createdAt,value
2022-08-10T00:01:34.651Z,19.60
2022-08-10T00:04:02.239Z,19.60
2022-08-10T00:06:29.596Z,19.60
2022-08-10T00:08:56.679Z,19.60
2022-08-10T00:11:24.205Z,19.50
2022-08-10T00:13:51.811Z,19.50
2022-08-10T00:16:19.034Z,19.50
2022-08-10T00:18:46.073Z,19.40
2022-08-10T00:21:13.173Z,19.40
2022-08-10T00:23:40.288Z,19.40
2022-08-10T00:26:07.572Z,19.30
2022-08-10T00:28:34.898Z,19.30
2022-08-10T00:31:02.122Z,19.30
2022-08-10T00:36:09.020Z,19.30
2022-08-10T00:38:37.151Z,19.20
2022-08-10T00:41:04.476Z,19.10
2022-08-10T00:43:31.573Z,19.10
2022-08-10T00:46:00.390Z,19.10
2022-08-10T00:48:31.594Z,19.00
2022-08-10T00:50:59.961Z,19.00
2022-08-10T00:53:30.492Z,18.90
2022-08-10T00:57:12.665Z,18.90
2022-08-10T00:58:46.267Z,18.80
2022-08-10T01:02:07.493Z,18.80
2022-08-10T01:04:36.687Z,18.80
2022-08-10T01:07:18.568Z,18.70
2022-08-10T01:10:13.370Z,18.70
2022-08-10T01:13:09.844Z,18.70
2022-08-10T01:16:13.347Z,18.70
2022-08-10T01:19:00.026Z,18.60
2022-08-10T01:21:57.223Z,18.60
2022-08-10T01:25:11.273Z,18.50
2022-08-10T01:27:58.950Z,18.50
2022-08-10T01:30:30.551Z,18.50
2022-08-10T01:33:01.847Z,18.50
2022-08-10T01:35:48.907Z,18.40
2022-08-10T01:38:34.003Z,18.40
2022-08-10T01:41:25.095Z,18.40
2022-08-10T01:44:05.561Z,18.30
2022-08-10T01:46:34.945Z,18.30
2022-08-10T01:49:06.831Z,18.30
2022-08-10T01:51:39.478Z,18.20
2022-08-10T01:54:13.465Z,18.20
2022-08-10T01:56:45.823Z,18.10
2022-08-10T01:59:31.460Z,18.10
2022-08-10T02:02:13.889Z,18.10
2022-08-10T02:04:46.056Z,18.10
2022-08-10T02:07:18.669Z,18.00
2022-08-10T02:09:55.010Z,18.00
2022-08-10T02:12:29.734Z,18.00
2022-08-10T02:15:08.500Z,18.00
2022-08-10T02:17:59.806Z,17.90
2022-08-10T02:20:37.927Z,17.90
2022-08-10T02:23:09.972Z,17.80
2022-08-10T02:25:43.014Z,17.80
2022-08-10T02:28:29.269Z,17.80
2022-08-10T02:31:11.698Z,17.80
2022-08-10T02:33:56.886Z,17.80
2022-08-10T02:36:30.948Z,17.70
2022-08-10T02:39:02.555Z,17.70
2022-08-10T02:45:14.469Z,17.60
2022-08-10T02:45:19.470Z,17.60
2022-08-10T02:48:09.828Z,17.70
2022-08-10T02:50:39.982Z,17.50
2022-08-10T02:53:54.437Z,17.50
2022-08-10T02:56:36.676Z,17.50
2022-08-10T02:59:20.741Z,17.50
2022-08-10T03:01:50.504Z,17.40
2022-08-10T03:04:55.487Z,17.40
2022-08-10T03:07:43.341Z,17.40
2022-08-10T03:10:17.707Z,17.50
2022-08-10T03:12:49.850Z,17.40
2022-08-10T03:15:20.511Z,17.30
2022-08-10T03:17:57.120Z,17.30
2022-08-10T03:20:39.499Z,17.20
2022-08-10T03:23:23.952Z,17.20
2022-08-10T03:25:56.791Z,17.20
2022-08-10T03:28:30.321Z,17.20
2022-08-10T03:31:01.768Z,17.10
2022-08-10T03:33:38.775Z,17.10
2022-08-10T03:36:43.020Z,17.10
2022-08-10T03:38:53.731Z,17.10
2022-08-10T03:41:35.688Z,17.00
2022-08-10T03:44:06.733Z,17.00
2022-08-10T03:46:38.881Z,16.90
2022-08-10T03:49:07.158Z,16.90
2022-08-10T03:51:35.465Z,16.90
2022-08-10T03:54:07.246Z,16.90
2022-08-10T03:56:40.490Z,16.80
2022-08-10T03:59:14.198Z,16.90
2022-08-10T04:02:46.823Z,16.90
2022-08-10T04:04:33.803Z,16.80
2022-08-10T04:07:02.527Z,16.80
2022-08-10T04:09:53.525Z,16.80
2022-08-10T04:12:19.815Z,16.70
2022-08-10T04:14:50.452Z,16.70
2022-08-10T04:18:01.332Z,16.70
2022-08-10T04:20:40.684Z,16.70
2022-08-10T04:23:13.948Z,16.60
2022-08-10T04:25:41.761Z,16.70
2022-08-10T04:28:10.511Z,16.70
2022-08-10T04:30:39.197Z,16.60
2022-08-10T04:33:09.395Z,16.60
2022-08-10T04:35:39.015Z,16.60
2022-08-10T04:38:06.919Z,16.60
2022-08-10T04:40:34.016Z,16.60
2022-08-10T04:43:12.915Z,16.60
2022-08-10T04:45:48.498Z,16.60
2022-08-10T04:48:42.813Z,16.60
2022-08-10T04:51:18.505Z,16.60
2022-08-10T04:54:04.518Z,16.70
2022-08-10T04:56:36.620Z,16.70
2022-08-10T04:59:05.836Z,16.70
2022-08-10T05:02:22.135Z,16.80
2022-08-10T05:04:35.660Z,16.70
2022-08-10T05:07:17.049Z,16.70
2022-08-10T05:10:03.583Z,16.70
2022-08-10T05:12:39.382Z,16.70
2022-08-10T05:15:10.284Z,16.80
2022-08-10T05:17:38.702Z,16.80
2022-08-10T05:20:08.333Z,17.00
2022-08-10T05:22:45.793Z,17.00
2022-08-10T05:25:18.398Z,17.00
2022-08-10T05:27:47.374Z,17.10
2022-08-10T05:30:19.049Z,17.20
2022-08-10T05:32:57.959Z,17.30
2022-08-10T05:35:55.353Z,17.20
2022-08-10T05:38:18.349Z,17.20
2022-08-10T05:40:47.819Z,17.40
2022-08-10T05:43:21.312Z,17.40
2022-08-10T05:46:18.018Z,17.30
2022-08-10T05:48:55.139Z,17.40
2022-08-10T05:51:26.256Z,17.40
2022-08-10T05:54:02.616Z,17.50
2022-08-10T05:56:53.666Z,17.70
2022-08-10T06:00:29.495Z,17.70
2022-08-10T06:02:40.188Z,17.80
2022-08-10T06:05:11.802Z,17.90
2022-08-10T06:08:03.657Z,18.00
2022-08-10T06:10:35.660Z,17.90
2022-08-10T06:13:30.238Z,18.00
2022-08-10T06:16:07.122Z,18.10
2022-08-10T06:18:35.580Z,18.20
2022-08-10T06:21:03.200Z,18.40
2022-08-10T06:23:32.340Z,18.30
2022-08-10T06:26:11.842Z,18.30
2022-08-10T06:29:03.035Z,18.40
2022-08-10T06:31:47.611Z,18.50
2022-08-10T06:34:56.886Z,18.70
2022-08-10T06:37:29.541Z,18.70
2022-08-10T06:39:56.799Z,18.80
2022-08-10T06:42:38.257Z,18.80
2022-08-10T06:45:12.608Z,19.10
2022-08-10T06:47:55.900Z,19.10
2022-08-10T06:51:11.575Z,19.10
2022-08-10T06:53:52.346Z,19.40
2022-08-10T06:56:37.490Z,19.60
2022-08-10T06:59:27.074Z,19.70
2022-08-10T07:02:02.254Z,19.80
2022-08-10T07:04:44.247Z,19.90
2022-08-10T07:07:18.217Z,20.00
2022-08-10T07:09:47.155Z,20.30
2022-08-10T07:12:17.295Z,20.30
2022-08-10T07:14:46.081Z,20.40
2022-08-10T07:17:17.461Z,20.40
2022-08-10T07:19:52.763Z,20.40
2022-08-10T07:23:22.905Z,20.60
2022-08-10T07:25:25.945Z,20.70
2022-08-10T07:28:00.350Z,20.90
2022-08-10T07:30:32.393Z,21.00
2022-08-10T07:33:02.375Z,21.10
2022-08-10T07:35:41.867Z,21.00
2022-08-10T07:38:25.350Z,21.20
2022-08-10T07:40:54.171Z,21.20
2022-08-10T07:43:25.065Z,21.30
2022-08-10T07:45:53.917Z,21.60
2022-08-10T07:48:27.706Z,21.60
2022-08-10T07:50:59.447Z,21.70
2022-08-10T07:53:39.943Z,21.80
2022-08-10T07:56:26.054Z,21.80
2022-08-10T07:59:06.359Z,22.00
2022-08-10T08:01:37.207Z,22.20
2022-08-10T08:04:11.766Z,22.40
2022-08-10T08:06:41.898Z,22.40
2022-08-10T08:09:11.042Z,22.40
2022-08-10T08:11:42.552Z,22.30
2022-08-10T08:14:12.095Z,22.50
2022-08-10T08:16:44.063Z,22.60
2022-08-10T08:19:28.441Z,22.70
2022-08-10T08:24:07.378Z,22.90
2022-08-10T08:24:48.478Z,23.00
2022-08-10T08:27:21.279Z,23.00
2022-08-10T08:29:50.613Z,23.10
2022-08-10T08:32:24.986Z,23.30
2022-08-10T08:35:02.445Z,23.60
2022-08-10T08:38:31.531Z,23.80
2022-08-10T08:40:27.812Z,23.70
2022-08-10T08:43:14.335Z,23.60
2022-08-10T08:46:03.258Z,23.60
2022-08-10T08:48:56.811Z,23.60
2022-08-10T08:52:07.272Z,23.70
2022-08-10T08:56:03.783Z,23.80
2022-08-10T08:58:51.121Z,24.30
2022-08-10T09:01:38.178Z,23.80
2022-08-10T09:04:35.926Z,24.10
2022-08-10T09:08:01.229Z,24.50
2022-08-10T09:10:52.420Z,24.50
2022-08-10T09:13:48.728Z,24.40
2022-08-10T09:16:43.966Z,24.50
2022-08-10T09:19:47.209Z,24.60
2022-08-10T09:22:57.302Z,24.80
2022-08-10T09:25:37.116Z,24.70
2022-08-10T09:28:11.919Z,24.90
2022-08-10T09:31:18.917Z,25.10
2022-08-10T09:36:25.572Z,25.40
2022-08-10T09:37:23.980Z,25.50
2022-08-10T09:41:00.028Z,25.50
2022-08-10T09:43:38.403Z,25.60
2022-08-10T09:47:05.359Z,25.90
2022-08-10T09:49:54.463Z,25.80
2022-08-10T09:52:48.972Z,26.00
2022-08-10T09:56:18.218Z,25.80
2022-08-10T09:59:26.949Z,26.00
2022-08-10T10:02:40.635Z,26.10
2022-08-10T10:05:31.595Z,26.10
2022-08-10T10:08:20.413Z,26.40
2022-08-10T10:11:00.932Z,26.50
2022-08-10T10:14:03.784Z,26.50
2022-08-10T10:16:47.035Z,26.40
2022-08-10T10:19:28.944Z,26.50
2022-08-10T10:22:46.063Z,26.80
2022-08-10T10:25:51.915Z,26.70
2022-08-10T10:29:11.427Z,27.00
2022-08-10T10:31:53.065Z,27.00
2022-08-10T10:34:35.754Z,27.10
2022-08-10T10:37:06.619Z,27.00
2022-08-10T10:39:38.274Z,26.90
2022-08-10T10:42:44.944Z,27.00
2022-08-10T10:45:36.855Z,27.20
2022-08-10T10:48:09.359Z,27.30
2022-08-10T10:51:12.540Z,27.60
2022-08-10T10:54:16.006Z,27.60
2022-08-10T10:57:59.202Z,27.50
2022-08-10T11:00:15.677Z,27.60
2022-08-10T11:03:09.689Z,27.50
2022-08-10T11:06:40.388Z,27.60
2022-08-10T11:10:08.624Z,27.70
2022-08-10T11:12:30.082Z,27.80
2022-08-10T11:15:10.120Z,27.80
2022-08-10T11:17:56.188Z,28.40
2022-08-10T11:20:46.604Z,27.80
2022-08-10T11:23:26.646Z,27.40
2022-08-10T11:26:16.844Z,27.60
2022-08-10T11:28:54.348Z,27.50
2022-08-10T11:31:37.979Z,27.90
2022-08-10T11:35:10.394Z,28.00
2022-08-10T11:38:30.079Z,28.00
2022-08-10T11:42:12.551Z,28.30
2022-08-10T11:44:37.550Z,28.60
2022-08-10T11:47:20.254Z,28.60
2022-08-10T11:50:07.339Z,28.30
2022-08-10T11:52:55.827Z,28.50
2022-08-10T11:55:28.556Z,28.60
2022-08-10T11:58:25.724Z,28.60
2022-08-10T12:00:57.497Z,28.80
2022-08-10T12:03:29.359Z,28.80
2022-08-10T12:06:02.595Z,28.70
2022-08-10T12:10:02.626Z,28.60
2022-08-10T12:11:26.486Z,29.10
2022-08-10T12:14:21.434Z,29.10
2022-08-10T12:17:00.876Z,29.10
2022-08-10T12:19:59.320Z,28.90
2022-08-10T12:23:11.981Z,28.70
2022-08-10T12:25:56.385Z,29.10
2022-08-10T12:28:58.370Z,29.50
2022-08-10T12:31:54.564Z,29.10
2022-08-10T12:34:46.350Z,28.90
2022-08-10T12:37:26.915Z,28.80
2022-08-10T12:40:35.055Z,29.30
2022-08-10T12:44:06.843Z,29.70
2022-08-10T12:46:56.524Z,29.30
2022-08-10T12:49:38.724Z,29.20
2022-08-10T12:52:18.145Z,29.50
2022-08-10T12:54:47.742Z,29.90
2022-08-10T12:57:23.056Z,29.80
2022-08-10T12:59:57.568Z,29.20
2022-08-10T13:02:51.716Z,29.70
2022-08-10T13:05:19.585Z,29.80
2022-08-10T13:08:03.904Z,29.40
2022-08-10T13:10:55.161Z,29.30
2022-08-10T13:13:31.282Z,29.40
2022-08-10T13:15:59.330Z,29.30
2022-08-10T13:18:41.433Z,29.50
2022-08-10T13:21:19.809Z,29.70
2022-08-10T13:24:03.967Z,30.10
2022-08-10T13:27:11.713Z,30.00
2022-08-10T13:29:36.042Z,30.20
2022-08-10T13:32:10.368Z,29.70
2022-08-10T13:34:45.708Z,29.70
2022-08-10T13:37:20.140Z,29.90
2022-08-10T13:39:58.001Z,30.00
2022-08-10T13:42:36.251Z,30.00
2022-08-10T13:45:11.758Z,29.80
2022-08-10T13:47:48.577Z,30.10
2022-08-10T13:50:33.108Z,29.90
2022-08-10T13:53:09.985Z,30.20
2022-08-10T13:55:57.324Z,30.30
2022-08-10T13:58:40.640Z,30.20
2022-08-10T14:01:16.645Z,29.90
2022-08-10T14:03:45.879Z,30.30
2022-08-10T14:06:15.703Z,30.50
2022-08-10T14:09:11.147Z,30.20
2022-08-10T14:11:41.753Z,30.20
2022-08-10T14:14:18.031Z,30.60
2022-08-10T14:16:47.151Z,30.60
2022-08-10T14:19:22.253Z,30.60
2022-08-10T14:21:50.121Z,30.40
2022-08-10T14:24:30.031Z,30.20
2022-08-10T14:27:10.877Z,30.50
2022-08-10T14:29:53.670Z,30.40
2022-08-10T14:32:26.188Z,30.70
2022-08-10T14:36:15.552Z,30.80
2022-08-10T14:37:55.963Z,30.80
2022-08-10T14:40:28.736Z,30.70
2022-08-10T14:43:06.551Z,30.70
2022-08-10T14:45:36.951Z,30.70
2022-08-10T14:48:13.796Z,30.60
2022-08-10T14:50:55.200Z,30.60
2022-08-10T14:53:34.657Z,30.70
2022-08-10T14:56:11.169Z,30.60
2022-08-10T14:59:06.225Z,30.90
2022-08-10T15:02:00.963Z,30.70
2022-08-10T15:04:28.815Z,30.90
2022-08-10T15:07:00.935Z,30.80
2022-08-10T15:10:00.808Z,30.90
2022-08-10T15:12:38.453Z,30.50
2022-08-10T15:15:16.428Z,30.30
2022-08-10T15:17:57.382Z,30.70
2022-08-10T15:20:29.873Z,31.20
2022-08-10T15:23:08.750Z,31.60
2022-08-10T15:26:10.858Z,31.90
2022-08-10T15:29:08.548Z,32.20
2022-08-10T15:31:55.763Z,32.30
2022-08-10T15:34:44.273Z,32.70
2022-08-10T15:37:39.732Z,32.70
2022-08-10T15:40:26.080Z,32.70
2022-08-10T15:43:24.818Z,33.20
2022-08-10T15:46:15.524Z,33.30
2022-08-10T15:48:52.977Z,33.10
2022-08-10T15:51:28.529Z,33.20
2022-08-10T15:54:12.021Z,33.50
2022-08-10T15:57:10.000Z,33.20
2022-08-10T16:00:01.626Z,33.00
2022-08-10T16:02:32.982Z,33.00
2022-08-10T16:05:11.674Z,33.50
2022-08-10T16:07:49.897Z,33.80
2022-08-10T16:10:28.420Z,34.20
2022-08-10T16:13:59.468Z,34.30
2022-08-10T16:16:06.231Z,34.80
2022-08-10T16:18:41.071Z,34.00
2022-08-10T16:21:19.368Z,34.40
2022-08-10T16:24:15.878Z,34.70
2022-08-10T16:26:53.276Z,34.90
2022-08-10T16:29:27.286Z,34.40
2022-08-10T16:32:02.953Z,34.50
2022-08-10T16:34:34.825Z,34.70
2022-08-10T16:37:07.257Z,34.70
2022-08-10T16:39:57.214Z,34.90
2022-08-10T16:42:33.763Z,35.30
2022-08-10T16:45:31.194Z,35.50
2022-08-10T16:47:59.504Z,35.60
2022-08-10T16:50:36.609Z,35.90
2022-08-10T16:53:10.635Z,35.70
2022-08-10T16:55:49.189Z,35.50
2022-08-10T16:58:27.173Z,35.30
2022-08-10T17:01:10.678Z,35.30
2022-08-10T17:04:07.931Z,35.40
2022-08-10T17:06:42.443Z,35.60
2022-08-10T17:09:18.389Z,35.20
2022-08-10T17:11:52.837Z,35.40
2022-08-10T17:14:27.100Z,35.50
2022-08-10T17:17:00.897Z,36.40
2022-08-10T17:19:35.011Z,35.20
2022-08-10T17:22:10.538Z,35.70
2022-08-10T17:24:46.596Z,35.70
2022-08-10T17:28:05.113Z,35.80
2022-08-10T17:30:15.669Z,35.70
2022-08-10T17:32:57.360Z,36.20
2022-08-10T17:35:37.390Z,35.80
2022-08-10T17:38:20.930Z,36.00
2022-08-10T17:40:50.642Z,35.90
2022-08-10T17:43:46.093Z,36.90
2022-08-10T17:46:13.599Z,36.90
2022-08-10T17:48:43.282Z,35.90
2022-08-10T17:51:15.476Z,36.60
2022-08-10T17:53:52.679Z,36.10
2022-08-10T17:56:22.081Z,36.30
2022-08-10T17:59:00.608Z,36.70
2022-08-10T18:01:40.554Z,35.50
2022-08-10T18:04:18.038Z,36.00
2022-08-10T18:06:51.543Z,35.90
2022-08-10T18:09:33.340Z,35.80
2022-08-10T18:12:37.910Z,34.60
2022-08-10T18:15:13.256Z,33.60
2022-08-10T18:17:48.415Z,32.80
2022-08-10T18:20:27.985Z,32.50
2022-08-10T18:22:57.484Z,32.00
2022-08-10T18:25:33.137Z,31.60
2022-08-10T18:28:04.792Z,30.90
2022-08-10T18:30:46.625Z,30.60
2022-08-10T18:33:17.367Z,30.70
2022-08-10T18:35:46.869Z,30.60
2022-08-10T18:38:16.615Z,30.40
2022-08-10T18:40:57.772Z,30.30
2022-08-10T18:44:05.924Z,30.10
2022-08-10T18:46:28.896Z,29.90
2022-08-10T18:49:09.208Z,29.70
2022-08-10T18:51:46.847Z,29.60
2022-08-10T18:54:39.489Z,29.50
2022-08-10T18:57:53.764Z,29.20
2022-08-10T19:00:24.341Z,29.30
2022-08-10T19:03:33.758Z,29.30
2022-08-10T19:06:47.868Z,29.00
2022-08-10T19:09:48.513Z,28.80
2022-08-10T19:12:29.984Z,28.80
2022-08-10T19:15:23.314Z,28.70
2022-08-10T19:18:16.198Z,28.40
2022-08-10T19:21:28.775Z,28.50
2022-08-10T19:24:38.555Z,28.10
2022-08-10T19:27:31.162Z,28.00
2022-08-10T19:30:14.399Z,27.80
2022-08-10T19:33:08.640Z,27.80
2022-08-10T19:36:08.651Z,27.80
2022-08-10T19:39:18.453Z,27.60
2022-08-10T19:41:54.879Z,27.40
2022-08-10T19:44:49.426Z,27.30
2022-08-10T19:47:41.437Z,27.10
2022-08-10T19:50:19.296Z,26.90
2022-08-10T19:53:04.286Z,27.00
2022-08-10T19:56:34.101Z,26.80
2022-08-10T20:00:06.466Z,26.70
2022-08-10T20:02:19.820Z,26.60
2022-08-10T20:05:16.216Z,26.50
2022-08-10T20:08:12.875Z,26.30
2022-08-10T20:11:11.914Z,26.30
2022-08-10T20:14:37.161Z,26.20
2022-08-10T20:17:13.513Z,26.20
2022-08-10T20:19:56.091Z,26.10
2022-08-10T20:22:29.613Z,26.00
2022-08-10T20:25:16.917Z,25.80
2022-08-10T20:28:09.957Z,25.80
2022-08-10T20:30:44.573Z,25.70
2022-08-10T20:33:27.224Z,25.70
2022-08-10T20:36:08.752Z,25.60
2022-08-10T20:39:28.250Z,25.50
2022-08-10T20:42:08.492Z,25.50
2022-08-10T20:44:59.502Z,25.50
2022-08-10T20:48:16.818Z,25.40
2022-08-10T20:50:55.553Z,25.30
2022-08-10T20:53:27.371Z,25.40
2022-08-10T20:55:54.527Z,25.20
2022-08-10T20:59:09.306Z,25.20
2022-08-10T21:02:07.395Z,25.10
2022-08-10T21:04:52.697Z,24.90
2022-08-10T21:08:04.750Z,24.90
2022-08-10T21:11:07.139Z,24.90
2022-08-10T21:14:28.302Z,24.70
2022-08-10T21:17:10.023Z,24.70
2022-08-10T21:20:08.096Z,24.60
2022-08-10T21:22:43.428Z,24.50
2022-08-10T21:25:29.825Z,24.40
2022-08-10T21:27:59.560Z,24.40
2022-08-10T21:31:06.773Z,24.20
2022-08-10T21:34:31.809Z,24.20
2022-08-10T21:37:22.708Z,24.10
2022-08-10T21:40:35.308Z,23.90
2022-08-10T21:43:44.567Z,24.00
2022-08-10T21:46:55.101Z,23.90
2022-08-10T21:50:24.735Z,23.90
2022-08-10T21:53:44.936Z,23.90
2022-08-10T21:56:46.616Z,23.80
2022-08-10T22:00:00.535Z,23.80
2022-08-10T22:02:51.396Z,23.60
2022-08-10T22:05:48.323Z,23.50
2022-08-10T22:08:39.928Z,23.50
2022-08-10T22:11:38.005Z,23.50
2022-08-10T22:14:27.121Z,23.40
2022-08-10T22:18:00.849Z,23.40
2022-08-10T22:20:56.576Z,23.30
2022-08-10T22:24:22.788Z,23.30
2022-08-10T22:27:50.190Z,23.20
2022-08-10T22:30:37.451Z,23.10
2022-08-10T22:33:39.177Z,23.10
2022-08-10T22:37:18.350Z,23.00
2022-08-10T22:40:37.684Z,23.10
2022-08-10T22:43:36.249Z,22.90
2022-08-10T22:46:36.416Z,22.90
2022-08-10T22:49:04.007Z,22.90
2022-08-10T22:51:49.073Z,22.80
2022-08-10T22:55:12.127Z,22.70
2022-08-10T22:58:06.296Z,22.70
2022-08-10T23:00:34.215Z,22.60
2022-08-10T23:03:22.654Z,22.70
2022-08-10T23:05:57.742Z,22.50
2022-08-10T23:08:41.778Z,22.50
2022-08-10T23:11:24.970Z,22.50
2022-08-10T23:14:03.175Z,22.50
2022-08-10T23:17:00.885Z,22.50
2022-08-10T23:19:47.041Z,22.40
2022-08-10T23:22:30.500Z,22.40
2022-08-10T23:25:08.179Z,22.30
2022-08-10T23:27:40.465Z,22.30
2022-08-10T23:30:17.658Z,22.20
2022-08-10T23:32:58.869Z,22.20
2022-08-10T23:36:13.018Z,22.10
2022-08-10T23:38:22.728Z,22.10
2022-08-10T23:40:54.941Z,22.10
2022-08-10T23:44:00.819Z,22.10
2022-08-10T23:46:27.667Z,22.10
2022-08-10T23:48:58.612Z,22.00
2022-08-10T23:51:54.601Z,22.00
2022-08-10T23:54:25.648Z,22.00
2022-08-10T23:57:01.142Z,21.90
2022-08-10T23:59:32.257Z,21.90
